Time;durP1;ratioP1;P1;durP2;ratioP2;P2;SDS_P1;SDS_P2;PMS_P1;PMS_P2;Temp;Humidity;BMP_temperature;BMP_pressure;BME280_temperature;BME280_humidity;BME280_pressure;Samples;Min_cycle;Max_cycle;Signal;HPM_P1;HPM_P2
2022/06/27 00:00:21;;;;;;;;;;;;;;;25.38;47.93;99888.88;4366641;32;19976;-83
2022/06/27 00:02:48;;;;;;;;;;;;;;;25.45;47.49;99889.47;4355619;32;19989;-83
2022/06/27 00:05:16;;;;;;;;;;;;;;;25.29;47.79;99882.19;4362248;32;19987;-85
2022/06/27 00:07:43;;;;;;;;;;;;;;;25.39;47.38;99882.66;4361099;32;19984;-83
2022/06/27 00:10:10;;;;;;;;;;;;;;;25.27;47.56;99885.84;4358145;32;19975;-83
2022/06/27 00:12:38;;;;;;;;;;;;;;;25.28;47.78;99884.94;4373263;32;20015;-85
2022/06/27 00:15:06;;;;;;;;;;;;;;;25.12;47.72;99894.44;4355910;32;20027;-85
2022/06/27 00:17:33;;;;;;;;;;;;;;;25.13;48.37;99894.37;4359655;32;20553;-84
2022/06/27 00:20:00;;;;;;;;;;;;;;;25.01;48.85;99890.44;4371936;32;20000;-84
2022/06/27 00:22:27;;;;;;;;;;;;;;;25.12;48.32;99894.44;4362177;32;20066;-84
2022/06/27 00:24:54;;;;;;;;;;;;;;;25.17;47.80;99892.47;4383128;32;20430;-87
2022/06/27 00:27:21;;;;;;;;;;;;;;;25.11;48.25;99887.41;4405199;32;19966;-84
2022/06/27 00:29:48;;;;;;;;;;;;;;;25.23;47.50;99889.56;4397597;32;20057;-84
2022/06/27 00:32:16;;;;;;;;;;;;;;;25.08;47.98;99887.53;4407431;32;19970;-84
2022/06/27 00:34:43;;;;;;;;;;;;;;;24.95;48.70;99888.06;4395606;32;20053;-84
2022/06/27 00:37:11;;;;;;;;;;;;;;;24.97;48.48;99888.84;4404708;32;19998;-83
2022/06/27 00:39:38;;;;;;;;;;;;;;;25.16;47.70;99890.75;4395010;32;19983;-85
2022/06/27 00:42:05;;;;;;;;;;;;;;;25.04;48.06;99886.81;4406586;32;20377;-83
2022/06/27 00:44:34;;;;;;;;;;;;;;;24.88;49.01;99881.28;4402366;32;19986;-83
2022/06/27 00:47:01;;;;;;;;;;;;;;;24.99;48.18;99883.50;4400493;32;19993;-84
2022/06/27 00:49:28;;;;;;;;;;;;;;;24.86;48.61;99893.75;4399188;32;20395;-83
2022/06/27 00:51:55;;;;;;;;;;;;;;;24.88;48.33;99891.88;4400719;32;20931;-86
2022/06/27 00:54:23;;;;;;;;;;;;;;;24.82;48.72;99886.84;4399276;32;19995;-85
2022/06/27 00:56:50;;;;;;;;;;;;;;;24.79;48.80;99890.50;4396835;32;20292;-84
2022/06/27 00:59:17;;;;;;;;;;;;;;;24.85;48.67;99892.00;4405159;32;19982;-84
2022/06/27 01:01:44;;;;;;;;;;;;;;;24.71;49.14;99902.34;4385207;32;19990;-85
2022/06/27 01:04:21;;;;;;;;;;;;;;;24.90;48.47;99900.63;4399011;32;19982;-84
2022/06/27 01:06:49;;;;;;;;;;;;;;;24.87;48.52;99900.75;4398300;32;19981;-85
2022/06/27 01:09:16;;;;;;;;;;;;;;;24.70;48.98;99908.56;4402320;32;20047;-84
2022/06/27 01:11:43;;;;;;;;;;;;;;;24.57;49.28;99909.06;4398909;32;19994;-85
2022/06/27 01:14:10;;;;;;;;;;;;;;;24.69;49.06;99912.09;4401059;32;20020;-88
2022/06/27 01:16:37;;;;;;;;;;;;;;;24.77;48.90;99904.72;4390533;32;20375;-88
2022/06/27 01:19:04;;;;;;;;;;;;;;;24.73;49.20;99900.47;4406089;32;19982;-84
2022/06/27 01:21:31;;;;;;;;;;;;;;;24.66;49.19;99907.78;4398313;32;20068;-84
2022/06/27 01:23:58;;;;;;;;;;;;;;;24.68;49.04;99899.81;4399080;32;19992;-86
2022/06/27 01:26:25;;;;;;;;;;;;;;;24.56;49.63;99899.38;4398712;32;19974;-84
2022/06/27 01:28:53;;;;;;;;;;;;;;;24.52;49.56;99895.13;4399781;32;19978;-84
2022/06/27 01:31:20;;;;;;;;;;;;;;;24.54;49.31;99893.28;4405107;32;19982;-84
2022/06/27 01:33:47;;;;;;;;;;;;;;;24.52;49.50;99900.44;4382286;32;20477;-85
2022/06/27 01:39:00;;;;;;;;;;;;;;;24.47;49.62;99897.09;4408779;32;19989;-85
2022/06/27 01:41:27;;;;;;;;;;;;;;;24.43;49.77;99889.34;4415667;32;20025;-87
2022/06/27 01:43:53;;;;;;;;;;;;;;;24.49;49.79;99895.25;4415010;32;19986;-88
2022/06/27 01:46:22;;;;;;;;;;;;;;;24.36;49.80;99891.34;4414165;32;20013;-87
2022/06/27 01:48:49;;;;;;;;;;;;;;;24.36;49.80;99894.00;4405308;32;19979;-87
2022/06/27 01:51:17;;;;;;;;;;;;;;;24.35;49.75;99893.13;4415276;32;19989;-86
2022/06/27 01:53:44;;;;;;;;;;;;;;;24.21;50.35;99900.75;4414241;32;19982;-88
2022/06/27 01:56:11;;;;;;;;;;;;;;;24.12;50.77;99894.06;4409755;32;19989;-85
2022/06/27 01:58:38;;;;;;;;;;;;;;;24.01;51.17;99893.59;4413767;32;20007;-84
2022/06/27 02:01:06;;;;;;;;;;;;;;;24.22;50.41;99894.56;4415555;32;20006;-87
2022/06/27 02:03:33;;;;;;;;;;;;;;;24.18;50.28;99894.72;4414691;32;19981;-83
2022/06/27 02:06:00;;;;;;;;;;;;;;;24.14;50.35;99900.13;4415242;32;19974;-84
2022/06/27 02:08:27;;;;;;;;;;;;;;;24.20;50.43;99898.16;4414255;32;19997;-84
2022/06/27 02:10:55;;;;;;;;;;;;;;;23.95;51.25;99893.81;4412857;32;19989;-84
2022/06/27 02:13:23;;;;;;;;;;;;;;;24.01;51.22;99904.16;4412043;32;20007;-85
2022/06/27 02:16:08;;;;;;;;;;;;;;;23.93;51.53;99900.97;4428664;32;19992;-86
2022/06/27 02:18:36;;;;;;;;;;;;;;;23.91;51.40;99908.09;4429688;32;20041;-87
2022/06/27 02:21:03;;;;;;;;;;;;;;;23.86;51.42;99912.66;4430475;32;20005;-86
2022/06/27 02:23:30;;;;;;;;;;;;;;;23.78;51.90;99906.81;4429925;32;19989;-86
2022/06/27 02:25:57;;;;;;;;;;;;;;;23.93;51.29;99908.91;4441367;32;19987;-85
2022/06/27 02:28:26;;;;;;;;;;;;;;;23.90;51.42;99906.38;4430680;32;20010;-87
2022/06/27 02:30:53;;;;;;;;;;;;;;;23.93;51.33;99908.91;4435858;32;20337;-86
2022/06/27 02:33:21;;;;;;;;;;;;;;;23.91;51.22;99908.09;4413422;32;20075;-83
2022/06/27 02:35:49;;;;;;;;;;;;;;;23.95;51.09;99908.81;4407414;32;20798;-82
2022/06/27 02:38:15;;;;;;;;;;;;;;;23.63;52.10;99909.06;4407904;32;19970;-86
2022/06/27 02:40:43;;;;;;;;;;;;;;;23.63;52.28;99914.34;4423648;32;19978;-86
2022/06/27 02:43:09;;;;;;;;;;;;;;;23.71;51.87;99918.53;4427856;32;19985;-82
2022/06/27 02:45:36;;;;;;;;;;;;;;;23.63;52.13;99919.63;4428360;32;19996;-83
2022/06/27 02:48:03;;;;;;;;;;;;;;;23.64;51.93;99921.38;4415137;32;20013;-85
2022/06/27 02:50:31;;;;;;;;;;;;;;;23.79;51.60;99919.09;4408179;32;20016;-86
2022/06/27 02:53:00;;;;;;;;;;;;;;;23.77;51.77;99926.22;4400296;32;20042;-84
2022/06/27 02:55:28;;;;;;;;;;;;;;;23.79;51.53;99930.53;4396979;32;19986;-83
2022/06/27 02:58:16;;;;;;;;;;;;;;;23.62;52.26;99923.22;4412567;32;19983;-86
2022/06/27 03:00:45;;;;;;;;;;;;;;;23.73;51.83;99929.91;4406742;32;19982;-84
2022/06/27 03:03:14;;;;;;;;;;;;;;;23.60;52.04;99925.03;4416855;32;20034;-83
2022/06/27 03:05:57;;;;;;;;;;;;;;;23.76;51.61;99932.44;4418350;32;19974;-84
2022/06/27 03:08:25;;;;;;;;;;;;;;;23.72;51.62;99934.34;4417162;32;20013;-83
2022/06/27 03:10:54;;;;;;;;;;;;;;;23.73;51.71;99945.75;4428705;32;20002;-84
2022/06/27 03:13:21;;;;;;;;;;;;;;;23.51;52.63;99941.22;4418391;32;20033;-83
2022/06/27 03:15:48;;;;;;;;;;;;;;;23.69;52.14;99942.38;4416936;32;20354;-84
2022/06/27 03:18:15;;;;;;;;;;;;;;;23.73;51.89;99948.41;4416707;32;20006;-84
2022/06/27 03:20:45;;;;;;;;;;;;;;;23.67;52.20;99947.69;4416835;32;19986;-84
2022/06/27 03:23:13;;;;;;;;;;;;;;;23.63;52.33;99945.22;4415913;32;20038;-86
2022/06/27 03:25:41;;;;;;;;;;;;;;;23.64;52.32;99955.75;4416639;32;19978;-84
2022/06/27 03:28:08;;;;;;;;;;;;;;;23.74;52.20;99947.47;4426189;32;20342;-84
2022/06/27 03:30:36;;;;;;;;;;;;;;;23.61;52.68;99958.50;4429919;32;19996;-83
2022/06/27 03:33:03;;;;;;;;;;;;;;;23.74;52.43;99958.06;4419666;32;20561;-84
2022/06/27 03:35:30;;;;;;;;;;;;;;;23.69;52.42;99958.25;4416636;32;20032;-84
2022/06/27 03:38:00;;;;;;;;;;;;;;;23.66;52.66;99956.53;4426880;32;19977;-84
2022/06/27 03:40:27;;;;;;;;;;;;;;;23.54;53.31;99967.53;4417320;32;22661;-84
2022/06/27 03:42:54;;;;;;;;;;;;;;;23.61;53.10;99961.13;4419768;32;19986;-84
2022/06/27 03:45:21;;;;;;;;;;;;;;;23.80;52.66;99963.13;4427781;32;19984;-84
2022/06/27 03:47:49;;;;;;;;;;;;;;;23.79;52.83;99961.41;4416866;32;19985;-84
2022/06/27 03:50:23;;;;;;;;;;;;;;;23.90;52.57;99960.09;4415719;32;20043;-85
2022/06/27 03:52:52;;;;;;;;;;;;;;;23.95;52.43;99956.41;4427788;32;19981;-83
2022/06/27 03:55:19;;;;;;;;;;;;;;;23.83;53.11;99955.06;4426139;32;19982;-85
2022/06/27 03:57:50;;;;;;;;;;;;;;;23.85;53.23;99966.47;4419125;32;19974;-85
2022/06/27 04:00:18;;;;;;;;;;;;;;;23.98;52.73;99967.75;4419142;32;19986;-85
2022/06/27 04:02:46;;;;;;;;;;;;;;;24.01;52.93;99962.34;4425555;32;19977;-84
2022/06/27 04:05:14;;;;;;;;;;;;;;;24.04;53.19;99966.66;4424257;32;19999;-84
2022/06/27 04:07:41;;;;;;;;;;;;;;;24.12;52.80;99965.47;4434643;32;20504;-83
2022/06/27 04:10:08;;;;;;;;;;;;;;;24.18;52.68;99968.78;4415146;32;19998;-84
2022/06/27 04:12:36;;;;;;;;;;;;;;;24.20;52.93;99972.25;4416276;32;20060;-84
2022/06/27 04:15:07;;;;;;;;;;;;;;;24.13;53.40;99975.12;4425482;32;20052;-83
2022/06/27 04:17:36;;;;;;;;;;;;;;;24.31;52.78;99967.38;4432116;32;19994;-84
2022/06/27 04:20:13;;;;;;;;;;;;;;;24.46;52.24;99974.75;4426258;32;19986;-85
2022/06/27 04:22:40;;;;;;;;;;;;;;;24.43;52.59;99977.53;4416613;32;20041;-83
2022/06/27 04:25:15;;;;;;;;;;;;;;;24.49;52.73;99984.38;4414983;32;19978;-84
2022/06/27 04:27:42;;;;;;;;;;;;;;;24.54;52.48;99983.28;4416036;32;19979;-84
2022/06/27 04:30:16;;;;;;;;;;;;;;;24.59;52.45;99981.28;4412172;32;20388;-85
2022/06/27 04:32:46;;;;;;;;;;;;;;;24.69;52.59;99986.22;4416657;32;19978;-83
2022/06/27 04:35:12;;;;;;;;;;;;;;;24.70;52.47;99982.69;4404071;32;19997;-85
2022/06/27 04:37:42;;;;;;;;;;;;;;;24.76;52.66;99987.72;4404887;32;20053;-82
2022/06/27 04:40:12;;;;;;;;;;;;;;;24.71;52.94;99990.56;4398747;32;19994;-83
2022/06/27 04:42:43;;;;;;;;;;;;;;;24.70;52.53;99993.28;4402562;32;19998;-89
2022/06/27 04:45:12;;;;;;;;;;;;;;;24.66;52.04;99987.22;4386145;32;19996;-87
2022/06/27 04:47:42;;;;;;;;;;;;;;;24.89;51.50;99988.97;4396447;32;20374;-92
2022/06/27 04:50:10;;;;;;;;;;;;;;;24.83;51.59;99984.78;4408716;32;20029;-85
2022/06/27 04:52:40;;;;;;;;;;;;;;;24.93;51.53;99982.59;4399560;32;19990;-87
2022/06/27 04:55:08;;;;;;;;;;;;;;;24.97;51.58;99992.13;4405646;32;19990;-88
2022/06/27 04:57:36;;;;;;;;;;;;;;;25.15;51.03;99984.41;4406517;32;20024;-90
2022/06/27 05:00:04;;;;;;;;;;;;;;;25.17;51.03;99985.19;4405270;32;20033;-87
2022/06/27 05:02:32;;;;;;;;;;;;;;;25.27;50.39;99989.16;4404352;32;20350;-89
2022/06/27 05:04:59;;;;;;;;;;;;;;;25.29;50.36;99992.63;4406434;32;19997;-88
2022/06/27 05:07:28;;;;;;;;;;;;;;;25.31;50.04;100001.38;4405403;32;20350;-89
2022/06/27 05:09:57;;;;;;;;;;;;;;;25.42;49.30;99999.13;4400359;32;20040;-89
2022/06/27 05:12:25;;;;;;;;;;;;;;;25.52;49.46;99992.50;4398555;32;20002;-89
2022/06/27 05:14:52;;;;;;;;;;;;;;;25.38;49.63;99997.53;4402952;32;19974;-89
2022/06/27 05:17:20;;;;;;;;;;;;;;;25.47;49.47;100001.59;4400481;32;19982;-89
2022/06/27 05:19:47;;;;;;;;;;;;;;;25.34;49.64;99993.31;4401039;32;20296;-90
2022/06/27 05:22:13;;;;;;;;;;;;;;;25.48;50.17;99996.22;4405819;32;19978;-89
2022/06/27 05:24:41;;;;;;;;;;;;;;;25.55;49.63;99993.31;4414238;32;19996;-90
2022/06/27 05:27:09;;;;;;;;;;;;;;;25.47;50.33;99996.28;4398896;32;20029;-89
2022/06/27 05:29:37;;;;;;;;;;;;;;;25.76;49.32;99987.06;4401788;32;19990;-91
2022/06/27 05:32:04;;;;;;;;;;;;;;;25.59;49.75;99992.22;4407229;32;20024;-89
2022/06/27 05:34:32;;;;;;;;;;;;;;;26.06;47.90;99999.91;4400035;32;19970;-90
2022/06/27 05:36:59;;;;;;;;;;;;;;;25.74;48.83;99995.09;4398475;32;20016;-92
2022/06/27 05:39:26;;;;;;;;;;;;;;;25.94;48.40;99991.59;4388591;32;20045;-92
2022/06/27 05:41:53;;;;;;;;;;;;;;;25.70;49.03;99987.34;4393102;32;19981;-92
2022/06/27 05:44:25;;;;;;;;;;;;;;;25.82;49.08;99991.28;4389595;32;20048;-92
2022/06/27 05:46:52;;;;;;;;;;;;;;;25.95;48.30;100003.06;4391451;32;20013;-92
2022/06/27 05:49:22;;;;;;;;;;;;;;;26.07;48.65;100001.62;4385659;32;19986;-95
2022/06/27 05:51:51;;;;;;;;;;;;;;;25.79;49.00;100002.84;4388930;32;19982;-93
2022/06/27 05:54:19;;;;;;;;;;;;;;;26.19;47.41;100003.72;4393174;32;20006;-92
2022/06/27 05:56:48;;;;;;;;;;;;;;;26.11;48.16;100004.09;4390875;32;19983;-94
2022/06/27 05:59:16;;;;;;;;;;;;;;;26.18;48.05;100004.66;4396000;32;19998;-92
2022/06/27 06:01:45;;;;;;;;;;;;;;;26.25;47.17;100008.75;4385151;32;19987;-88
2022/06/27 06:04:14;;;;;;;;;;;;;;;26.50;46.74;100005.00;4396149;32;20363;-89
2022/06/27 06:06:43;;;;;;;;;;;;;;;26.38;48.21;100007.25;4396648;32;19979;-89
2022/06/27 06:09:15;;;;;;;;;;;;;;;26.75;46.27;100016.19;4397445;32;19994;-89
2022/06/27 06:11:42;;;;;;;;;;;;;;;26.63;46.92;100017.63;4395054;32;19982;-89
2022/06/27 06:14:11;;;;;;;;;;;;;;;26.77;46.90;100019.63;4422558;32;20406;-89
2022/06/27 06:16:39;;;;;;;;;;;;;;;26.89;46.28;100013.72;4403499;32;20013;-89
2022/06/27 06:19:06;;;;;;;;;;;;;;;27.30;45.37;100021.47;4416934;32;19989;-88
2022/06/27 06:21:33;;;;;;;;;;;;;;;27.59;45.21;100019.13;4405181;32;19986;-86
2022/06/27 06:24:03;;;;;;;;;;;;;;;27.88;44.70;100019.44;4406190;32;20001;-88
2022/06/27 06:26:30;;;;;;;;;;;;;;;28.20;43.18;100021.25;4399571;32;19978;-88
2022/06/27 06:29:01;;;;;;;;;;;;;;;28.59;42.47;100021.84;4402687;32;20042;-88
2022/06/27 06:31:28;;;;;;;;;;;;;;;28.85;42.16;100025.72;4382613;32;19981;-90
2022/06/27 06:33:56;;;;;;;;;;;;;;;29.20;41.23;100027.25;4416402;32;19990;-88
2022/06/27 06:36:23;;;;;;;;;;;;;;;29.24;41.41;100022.59;4400400;32;20041;-88
2022/06/27 06:38:51;;;;;;;;;;;;;;;29.64;40.82;100022.91;4381914;32;20041;-88
2022/06/27 06:41:18;;;;;;;;;;;;;;;30.02;39.61;100023.25;4397638;32;20653;-89
2022/06/27 06:43:46;;;;;;;;;;;;;;;29.99;40.37;100028.78;4385619;32;19986;-88
2022/06/27 06:46:15;;;;;;;;;;;;;;;30.00;40.58;100025.19;4396607;32;20413;-85
2022/06/27 06:48:43;;;;;;;;;;;;;;;30.47;38.61;100024.06;4403151;32;20005;-89
2022/06/27 06:51:16;;;;;;;;;;;;;;;30.80;38.67;100025.53;4411665;32;20481;-88
2022/06/27 06:53:45;;;;;;;;;;;;;;;31.00;37.58;100027.75;4412155;32;20432;-85
2022/06/27 06:56:12;;;;;;;;;;;;;;;31.17;37.98;100028.44;4418390;32;19982;-86
2022/06/27 06:58:39;;;;;;;;;;;;;;;31.28;37.68;100031.28;4417254;32;20060;-85
2022/06/27 07:01:06;;;;;;;;;;;;;;;31.41;36.23;100021.50;4416792;32;20036;-85
2022/06/27 07:03:34;;;;;;;;;;;;;;;31.36;37.07;100031.62;4410096;32;19996;-84
2022/06/27 07:06:02;;;;;;;;;;;;;;;31.42;36.65;100023.19;4425283;32;20030;-87
2022/06/27 07:08:30;;;;;;;;;;;;;;;31.66;36.69;100027.84;4410550;32;20039;-84
2022/06/27 07:10:58;;;;;;;;;;;;;;;31.73;36.61;100031.81;4401532;32;19986;-87
2022/06/27 07:13:25;;;;;;;;;;;;;;;32.03;35.56;100025.31;4392107;32;19986;-87
2022/06/27 07:15:52;;;;;;;;;;;;;;;31.98;36.28;100035.50;4390660;32;20339;-85
2022/06/27 07:18:19;;;;;;;;;;;;;;;32.15;35.77;100024.47;4396968;32;19994;-86
2022/06/27 07:20:47;;;;;;;;;;;;;;;32.31;35.59;100022.41;4398274;32;20025;-85
2022/06/27 07:23:15;;;;;;;;;;;;;;;32.49;34.69;100022.09;4399513;32;20330;-88
2022/06/27 07:25:43;;;;;;;;;;;;;;;32.37;36.82;100019.28;4400288;32;19975;-86
2022/06/27 07:28:10;;;;;;;;;;;;;;;32.70;34.12;100017.81;4400306;32;20341;-90
2022/06/27 07:30:37;;;;;;;;;;;;;;;32.86;35.09;100023.75;4400675;32;19986;-90
2022/06/27 07:33:04;;;;;;;;;;;;;;;32.96;34.73;100034.69;4398708;32;20112;-88
2022/06/27 07:35:32;;;;;;;;;;;;;;;33.28;33.27;100035.00;4403788;32;19982;-87
2022/06/27 07:38:00;;;;;;;;;;;;;;;33.14;34.17;100037.00;4398881;32;19994;-86
2022/06/27 07:40:27;;;;;;;;;;;;;;;33.34;34.23;100029.16;4400932;32;20045;-90
2022/06/27 07:42:54;;;;;;;;;;;;;;;33.31;34.56;100034.78;4399807;32;20037;-86
2022/06/27 07:45:21;;;;;;;;;;;;;;;33.40;33.47;100043.06;4400804;32;19978;-88
2022/06/27 07:47:49;;;;;;;;;;;;;;;33.52;34.19;100036.81;4398821;32;20327;-88
2022/06/27 07:50:36;;;;;;;;;;;;;;;33.75;33.30;100038.56;4397175;32;20012;-87
2022/06/27 07:53:14;;;;;;;;;;;;;;;33.87;33.21;100044.81;4400717;32;19974;-92
2022/06/27 07:55:42;;;;;;;;;;;;;;;34.12;32.35;100046.47;4396625;32;19991;-84
2022/06/27 07:58:09;;;;;;;;;;;;;;;34.02;32.88;100050.87;4398037;32;20292;-85
2022/06/27 08:00:37;;;;;;;;;;;;;;;34.17;32.57;100043.41;4397925;32;19994;-86
2022/06/27 08:03:36;;;;;;;;;;;;;;;34.35;31.90;100041.09;4399021;32;20308;-89
2022/06/27 08:05:53;;;;;;;;;;;;;;;34.33;33.64;100048.41;4397695;32;20406;-91
2022/06/27 08:08:22;;;;;;;;;;;;;;;34.36;32.75;100048.19;4399738;32;19996;-86
2022/06/27 08:10:51;;;;;;;;;;;;;;;34.33;34.08;100043.03;4399590;32;19997;-86
2022/06/27 08:13:18;;;;;;;;;;;;;;;34.63;31.55;100056.75;4386571;32;20009;-86
2022/06/27 08:15:47;;;;;;;;;;;;;;;34.41;31.78;100056.75;4386526;32;19990;-87
2022/06/27 08:18:14;;;;;;;;;;;;;;;34.56;32.31;100055.53;4401944;32;20301;-85
2022/06/27 08:20:47;;;;;;;;;;;;;;;35.29;29.46;100055.84;4396208;32;20035;-88
2022/06/27 08:23:15;;;;;;;;;;;;;;;34.90;30.55;100047.41;4398383;32;20562;-87
2022/06/27 08:25:46;;;;;;;;;;;;;;;34.89;30.82;100051.94;4395771;32;20417;-85
2022/06/27 08:28:15;;;;;;;;;;;;;;;34.82;30.59;100055.25;4390503;32;20004;-86
2022/06/27 08:30:42;;;;;;;;;;;;;;;34.88;30.80;100054.75;4406910;32;20571;-85
2022/06/27 08:33:11;;;;;;;;;;;;;;;35.31;29.33;100067.37;4408711;32;19978;-85
2022/06/27 08:35:44;;;;;;;;;;;;;;;35.37;31.48;100066.84;4407107;32;19998;-86
2022/06/27 08:38:11;;;;;;;;;;;;;;;35.09;32.13;100057.53;4412368;32;19990;-87
2022/06/27 08:40:38;;;;;;;;;;;;;;;35.47;30.14;100073.16;4412353;32;20009;-86
2022/06/27 08:43:06;;;;;;;;;;;;;;;35.41;30.09;100061.06;4407869;32;20889;-89
2022/06/27 08:45:34;;;;;;;;;;;;;;;35.10;30.24;100060.09;4412125;32;19974;-88
2022/06/27 08:48:07;;;;;;;;;;;;;;;35.62;29.13;100054.91;4401385;32;20001;-87
2022/06/27 08:50:34;;;;;;;;;;;;;;;35.55;30.78;100059.09;4388962;32;20004;-89
2022/06/27 08:53:02;;;;;;;;;;;;;;;35.51;30.85;100060.28;4422784;32;20024;-86
2022/06/27 08:55:35;;;;;;;;;;;;;;;35.30;28.57;100060.28;4411840;32;20324;-86
2022/06/27 08:58:04;;;;;;;;;;;;;;;35.40;29.96;100050.44;4406573;32;20009;-86
2022/06/27 09:00:37;;;;;;;;;;;;;;;35.62;29.92;100050.34;4415041;32;20564;-86
2022/06/27 09:03:06;;;;;;;;;;;;;;;35.82;28.55;100040.56;4400074;32;20001;-85
2022/06/27 09:05:35;;;;;;;;;;;;;;;36.09;27.43;100042.72;4408036;32;20069;-87
2022/06/27 09:08:02;;;;;;;;;;;;;;;35.70;28.43;100030.81;4432638;32;20346;-87
2022/06/27 09:10:31;;;;;;;;;;;;;;;35.85;27.80;100039.44;4402075;32;20353;-88
2022/06/27 09:13:06;;;;;;;;;;;;;;;35.83;28.61;100036.00;4416714;32;20637;-89
2022/06/27 09:15:39;;;;;;;;;;;;;;;36.34;26.25;100029.75;4412858;32;19986;-90
2022/06/27 09:18:06;;;;;;;;;;;;;;;36.01;27.28;100029.03;4432435;32;20005;-88
2022/06/27 09:20:46;;;;;;;;;;;;;;;35.52;30.97;100035.94;4410189;32;20071;-86
2022/06/27 09:23:53;;;;;;;;;;;;;;;36.19;27.39;100031.16;4405187;32;19990;-87
2022/06/27 09:26:21;;;;;;;;;;;;;;;36.37;26.27;100026.78;4422531;32;19989;-87
2022/06/27 09:28:55;;;;;;;;;;;;;;;36.42;27.03;100027.25;4416114;32;20012;-88
2022/06/27 09:31:30;;;;;;;;;;;;;;;36.83;26.27;100019.16;4408936;32;20335;-86
2022/06/27 09:34:00;;;;;;;;;;;;;;;36.37;26.16;100026.78;4416881;32;19992;-89
2022/06/27 09:36:29;;;;;;;;;;;;;;;36.51;26.73;100025.62;4424982;32;19982;-87
2022/06/27 09:38:56;;;;;;;;;;;;;;;36.31;26.81;100020.13;4415449;32;19989;-88
2022/06/27 09:41:25;;;;;;;;;;;;;;;36.22;25.03;100014.69;4405835;32;20029;-86
2022/06/27 09:43:54;;;;;;;;;;;;;;;36.01;26.18;100023.63;4399817;32;20313;-86
2022/06/27 09:46:21;;;;;;;;;;;;;;;36.48;26.21;100020.47;4399187;32;20005;-86
2022/06/27 09:48:48;;;;;;;;;;;;;;;36.43;27.91;100010.06;4418776;32;19981;-88
2022/06/27 09:51:16;;;;;;;;;;;;;;;37.03;26.03;100014.66;4414887;32;19982;-87
2022/06/27 09:53:50;;;;;;;;;;;;;;;36.78;28.71;100006.06;4413604;32;20024;-85
2022/06/27 09:56:20;;;;;;;;;;;;;;;36.21;26.14;100002.19;4415240;32;19982;-85
2022/06/27 09:58:47;;;;;;;;;;;;;;;36.60;28.08;100007.72;4413085;32;20349;-86
2022/06/27 10:01:35;;;;;;;;;;;;;;;36.48;26.64;100015.91;4429079;32;19974;-88
2022/06/27 10:04:03;;;;;;;;;;;;;;;36.69;26.29;100001.50;4396734;32;19992;-88
2022/06/27 10:06:30;;;;;;;;;;;;;;;36.71;28.12;99999.53;4432951;32;19991;-90
2022/06/27 10:08:58;;;;;;;;;;;;;;;36.57;25.31;99998.09;4413632;32;20009;-87
2022/06/27 10:11:25;;;;;;;;;;;;;;;36.93;25.83;99999.28;4412045;32;19978;-87
2022/06/27 10:14:11;;;;;;;;;;;;;;;36.95;25.75;99991.91;4404911;32;19982;-87
2022/06/27 10:16:49;;;;;;;;;;;;;;;36.54;25.81;99993.81;4401642;32;20001;-87
2022/06/27 10:19:16;;;;;;;;;;;;;;;36.67;25.45;99988.16;4411342;32;19986;-87
2022/06/27 10:21:45;;;;;;;;;;;;;;;36.85;26.15;99990.16;4415063;32;19977;-87
2022/06/27 10:24:18;;;;;;;;;;;;;;;36.80;26.45;99985.19;4416473;32;19982;-86
2022/06/27 10:26:46;;;;;;;;;;;;;;;36.63;26.79;99980.47;4399489;32;20347;-88
2022/06/27 10:29:28;;;;;;;;;;;;;;;37.21;25.65;99981.41;4400964;32;20039;-87
2022/06/27 10:31:56;;;;;;;;;;;;;;;37.03;26.66;99982.25;4405603;32;19986;-86
2022/06/27 10:34:39;;;;;;;;;;;;;;;37.13;24.98;99980.41;4398820;32;19974;-87
2022/06/27 10:37:24;;;;;;;;;;;;;;;37.21;24.53;99985.97;4399704;32;19990;-87
2022/06/27 10:39:51;;;;;;;;;;;;;;;37.45;24.33;99982.81;4409139;32;20474;-87
2022/06/27 10:42:44;;;;;;;;;;;;;;;36.93;25.83;99977.69;4425788;32;19981;-87
2022/06/27 10:45:20;;;;;;;;;;;;;;;36.53;25.24;99975.06;4412649;32;20009;-87
2022/06/27 10:47:47;;;;;;;;;;;;;;;36.15;25.82;99975.78;4409233;32;20399;-86
2022/06/27 10:50:15;;;;;;;;;;;;;;;36.60;24.80;99965.44;4430986;32;20004;-86
2022/06/27 10:52:43;;;;;;;;;;;;;;;36.44;25.93;99965.06;4413759;32;19986;-87
2022/06/27 10:55:20;;;;;;;;;;;;;;;36.77;25.57;99966.59;4418681;32;20444;-87
2022/06/27 10:57:48;;;;;;;;;;;;;;;36.98;24.85;99958.38;4414014;32;20041;-88
2022/06/27 11:00:41;;;;;;;;;;;;;;;36.84;23.59;99962.34;4432445;32;19993;-87
2022/06/27 11:03:09;;;;;;;;;;;;;;;36.67;25.91;99961.19;4414358;32;20000;-86
2022/06/27 11:05:54;;;;;;;;;;;;;;;36.40;24.24;99951.03;4412877;32;19971;-86
2022/06/27 11:08:22;;;;;;;;;;;;;;;36.19;24.51;99958.38;4393732;32;20032;-86
2022/06/27 11:10:49;;;;;;;;;;;;;;;36.35;25.11;99953.28;4423132;32;19993;-89
2022/06/27 11:13:35;;;;;;;;;;;;;;;36.92;24.72;99943.59;4410082;32;19974;-88
2022/06/27 11:16:02;;;;;;;;;;;;;;;37.02;24.25;99953.59;4439344;32;20023;-87
2022/06/27 11:18:40;;;;;;;;;;;;;;;36.92;24.01;99949.00;4443346;32;19989;-88
2022/06/27 11:21:08;;;;;;;;;;;;;;;37.09;23.99;99938.50;4443238;32;20283;-89
2022/06/27 11:23:47;;;;;;;;;;;;;;;36.52;24.86;99941.84;4428418;32;20001;-89
2022/06/27 11:26:15;;;;;;;;;;;;;;;36.88;25.05;99931.38;4407933;32;20307;-88
2022/06/27 11:34:26;;;;;;;;;;;;;;;36.75;25.18;99925.41;4422537;32;20830;-88
2022/06/27 11:36:53;;;;;;;;;;;;;;;37.02;24.13;99921.19;4415066;32;19982;-87
2022/06/27 11:39:24;;;;;;;;;;;;;;;36.86;24.80;99917.19;4414795;32;20042;-89
2022/06/27 11:41:55;;;;;;;;;;;;;;;36.49;26.58;99925.91;4405482;32;20002;-87
2022/06/27 11:44:23;;;;;;;;;;;;;;;36.60;26.08;99922.28;4411765;32;20016;-87
2022/06/27 11:46:52;;;;;;;;;;;;;;;36.37;26.09;99927.03;4399577;32;20280;-87
2022/06/27 11:49:29;;;;;;;;;;;;;;;36.50;25.30;99922.25;4399335;32;20004;-86
2022/06/27 11:52:00;;;;;;;;;;;;;;;36.52;25.57;99914.88;4389106;32;19994;-86
2022/06/27 11:54:35;;;;;;;;;;;;;;;36.47;25.25;99910.88;4381443;32;20018;-88
2022/06/27 11:57:02;;;;;;;;;;;;;;;36.54;25.57;99902.13;4382561;32;20098;-86
2022/06/27 11:59:30;;;;;;;;;;;;;;;36.41;26.61;99912.31;4378367;32;20038;-86
2022/06/27 12:02:01;;;;;;;;;;;;;;;36.61;25.83;99918.59;4396625;32;19997;-88
2022/06/27 12:04:35;;;;;;;;;;;;;;;36.77;22.79;99909.94;4371790;32;20082;-87
2022/06/27 12:07:11;;;;;;;;;;;;;;;36.62;23.13;99908.66;4377554;32;19998;-88
2022/06/27 12:09:48;;;;;;;;;;;;;;;36.83;24.08;99906.66;4379284;32;19983;-88
2022/06/27 12:12:19;;;;;;;;;;;;;;;36.02;23.51;99896.00;4386665;32;19993;-86
2022/06/27 12:14:47;;;;;;;;;;;;;;;35.99;25.76;99898.09;4386766;32;20052;-87
2022/06/27 12:17:14;;;;;;;;;;;;;;;36.16;23.98;99885.88;4384358;32;19992;-89
2022/06/27 12:19:42;;;;;;;;;;;;;;;36.80;24.37;99882.69;4367220;32;20543;-87
2022/06/27 12:22:12;;;;;;;;;;;;;;;36.78;23.81;99903.53;4386223;32;20037;-89
2022/06/27 12:24:59;;;;;;;;;;;;;;;36.91;23.95;99893.31;4392332;32;20498;-89
2022/06/27 12:27:26;;;;;;;;;;;;;;;36.58;22.66;99902.69;4386769;32;20021;-88
2022/06/27 12:29:55;;;;;;;;;;;;;;;36.74;24.53;99891.34;4382188;32;19986;-87
2022/06/27 12:32:21;;;;;;;;;;;;;;;36.38;23.44;99885.63;4387070;32;20041;-86
2022/06/27 12:34:51;;;;;;;;;;;;;;;36.17;24.46;99882.16;4388673;32;19990;-87
2022/06/27 12:37:17;;;;;;;;;;;;;;;35.91;23.78;99871.84;4385267;32;20031;-86
2022/06/27 12:39:44;;;;;;;;;;;;;;;36.53;23.39;99881.53;4387809;32;20385;-88
2022/06/27 12:42:11;;;;;;;;;;;;;;;36.54;23.67;99874.31;4405012;32;19990;-84
2022/06/27 12:44:38;;;;;;;;;;;;;;;36.86;22.24;99886.66;4400360;32;20081;-87
2022/06/27 12:47:05;;;;;;;;;;;;;;;36.63;22.91;99883.38;4400777;32;19994;-85
2022/06/27 12:49:32;;;;;;;;;;;;;;;36.88;22.18;99872.00;4393820;32;20032;-88
2022/06/27 12:51:59;;;;;;;;;;;;;;;36.89;22.51;99884.53;4402448;32;20053;-87
2022/06/27 12:54:28;;;;;;;;;;;;;;;36.76;23.24;99878.56;4415656;32;20053;-85
2022/06/27 12:56:56;;;;;;;;;;;;;;;37.02;24.24;99880.72;4393144;32;19973;-88
2022/06/27 12:59:23;;;;;;;;;;;;;;;36.79;22.81;99878.25;4409350;32;19990;-88
2022/06/27 13:01:51;;;;;;;;;;;;;;;36.53;22.36;99876.12;4430349;32;19977;-90